createdAt,value
2022-11-29T00:06:24.522Z,1016.14
2022-11-29T00:16:01.688Z,1016.11
2022-11-29T00:35:15.814Z,1016.06
2022-11-29T00:44:52.829Z,1015.93
2022-11-29T00:54:30.033Z,1015.97
2022-11-29T01:04:07.582Z,1015.94
2022-11-29T01:13:43.989Z,1016.04
2022-11-29T01:23:21.199Z,1016.09
2022-11-29T01:32:57.913Z,1016.12
2022-11-29T01:42:35.303Z,1016.16
2022-11-29T01:52:12.338Z,1016.16
2022-11-29T02:11:26.685Z,1016.15
2022-11-29T02:21:03.714Z,1016.16
2022-11-29T02:30:40.897Z,1016.13
2022-11-29T02:40:17.681Z,1016.15
2022-11-29T02:49:54.420Z,1016.2
2022-11-29T02:59:31.161Z,1016.22
2022-11-29T03:09:08.363Z,1016.32
2022-11-29T03:28:21.626Z,1016.37
2022-11-29T03:37:58.801Z,1016.38
2022-11-29T03:47:36.726Z,1016.42
2022-11-29T03:57:12.785Z,1016.43
2022-11-29T04:06:49.658Z,1016.45
2022-11-29T04:16:26.595Z,1016.44
2022-11-29T04:26:03.000Z,1016.55
2022-11-29T04:35:40.419Z,1016.55
2022-11-29T04:45:17.376Z,1016.56
2022-11-29T05:04:30.944Z,1016.74
2022-11-29T05:14:08.104Z,1016.8
2022-11-29T05:23:45.061Z,1016.84
2022-11-29T05:33:22.913Z,1016.92
2022-11-29T05:42:59.265Z,1017.02
2022-11-29T05:52:36.084Z,1017.08
2022-11-29T06:02:13.008Z,1017.19
2022-11-29T06:11:50.093Z,1017.24
2022-11-29T06:21:27.832Z,1017.33
2022-11-29T06:40:42.055Z,1017.33
2022-11-29T06:50:19.787Z,1017.52
2022-11-29T06:59:55.939Z,1017.61
2022-11-29T07:09:33.078Z,1017.75
2022-11-29T07:19:12.009Z,1017.8
2022-11-29T07:28:47.598Z,1017.87
2022-11-29T07:38:25.008Z,1017.92
2022-11-29T07:48:02.095Z,1017.93
2022-11-29T07:57:39.174Z,1017.98
2022-11-29T08:07:16.623Z,1018.06
2022-11-29T08:16:53.554Z,1018.06
2022-11-29T08:36:08.642Z,1018.12
2022-11-29T08:45:45.781Z,1018.22
2022-11-29T08:55:22.789Z,1018.29
2022-11-29T09:05:01.138Z,1018.32
2022-11-29T09:14:37.301Z,1018.52
2022-11-29T09:33:51.570Z,1018.71
2022-11-29T09:53:05.518Z,1018.78
2022-11-29T10:02:42.857Z,1018.84
2022-11-29T10:12:20.172Z,1018.85
2022-11-29T10:21:57.527Z,1018.83
2022-11-29T10:31:35.099Z,1018.78
2022-11-29T10:41:12.097Z,1018.82
2022-11-29T10:50:49.326Z,1018.81
2022-11-29T11:00:26.848Z,1018.76
2022-11-29T11:10:03.972Z,1018.84
2022-11-29T11:29:18.589Z,1018.95
2022-11-29T11:38:55.830Z,1018.92
2022-11-29T11:48:31.699Z,1018.99
2022-11-29T11:58:10.447Z,1019.04
2022-11-29T12:08:07.113Z,1019.02
2022-11-29T12:17:22.696Z,1019.1
2022-11-29T12:26:59.902Z,1019.16
2022-11-29T12:36:36.499Z,1019.22
2022-11-29T12:46:13.472Z,1019.28
2022-11-29T12:55:50.209Z,1019.27
2022-11-29T13:05:27.429Z,1019.34
2022-11-29T13:15:04.555Z,1019.32
2022-11-29T13:24:43.002Z,1019.43
2022-11-29T13:34:18.697Z,1019.49
2022-11-29T13:43:55.710Z,1019.52
2022-11-29T13:53:32.537Z,1019.52
2022-11-29T14:03:09.593Z,1019.59
2022-11-29T14:22:23.507Z,1019.67
2022-11-29T14:41:37.167Z,1019.74
2022-11-29T15:00:51.151Z,1019.76
2022-11-29T15:10:28.167Z,1019.87
2022-11-29T15:20:05.089Z,1019.92
2022-11-29T15:39:18.833Z,1020.2
2022-11-29T15:48:55.973Z,1020.35
2022-11-29T15:58:32.689Z,1020.39
2022-11-29T16:08:09.499Z,1020.48
2022-11-29T16:17:46.360Z,1020.57
2022-11-29T16:27:23.320Z,1020.64
2022-11-29T16:37:01.071Z,1020.77
2022-11-29T16:46:36.933Z,1020.76
2022-11-29T16:56:13.919Z,1020.84
2022-11-29T17:15:27.348Z,1020.78
2022-11-29T17:25:04.188Z,1020.86
2022-11-29T17:34:41.165Z,1020.87
2022-11-29T17:44:18.259Z,1020.96
2022-11-29T17:53:54.890Z,1021.11
2022-11-29T18:13:08.853Z,1021.15
2022-11-29T18:32:22.134Z,1021.18
2022-11-29T18:41:58.986Z,1021.23
2022-11-29T18:51:35.742Z,1021.35
2022-11-29T19:01:13.042Z,1021.43
2022-11-29T19:10:49.716Z,1021.49
2022-11-29T19:20:26.480Z,1021.43
2022-11-29T19:30:03.361Z,1021.49
2022-11-29T19:39:40.585Z,1021.46
2022-11-29T19:49:17.564Z,1021.59
2022-11-29T19:58:54.908Z,1021.54
2022-11-29T20:08:31.772Z,1021.7
2022-11-29T20:18:08.634Z,1021.76
2022-11-29T20:27:45.160Z,1021.71
2022-11-29T20:37:22.181Z,1021.73
2022-11-29T20:46:59.062Z,1021.82
2022-11-29T20:56:35.867Z,1021.86
2022-11-29T21:06:12.758Z,1021.95
2022-11-29T21:15:49.674Z,1021.99
2022-11-29T21:25:26.054Z,1022.04
2022-11-29T21:35:02.721Z,1022.08
2022-11-29T21:44:39.639Z,1022.17
2022-11-29T21:54:16.669Z,1022.19
2022-11-29T22:03:53.690Z,1022.16
2022-11-29T22:13:30.962Z,1022.16
2022-11-29T22:23:08.022Z,1022.12
2022-11-29T22:32:45.327Z,1022.16
2022-11-29T22:42:22.445Z,1022.3
2022-11-29T22:51:59.612Z,1022.21
2022-11-29T23:01:36.575Z,1022.12
2022-11-29T23:11:13.975Z,1022.18
2022-11-29T23:20:50.913Z,1022.2
2022-11-29T23:30:28.206Z,1022.26
2022-11-29T23:40:05.030Z,1022.26
2022-11-29T23:49:42.011Z,1022.26
2022-11-29T23:59:18.986Z,1022.26
